FA44 weather

Willis Gliderport
Boynton Beach, Florida, United States

Public forecast

Using degrees Fahrenheit for public forecast. Weather courtesy of forecast.io.

Closest aviation weather report (METAR) to Willis Gliderport

Closest report is Palm Beach International Airport, 10.3 nm (19.1 km) NE. Retrieved 2019/10/21 05:53 UTC (13 minutes ago):

KPBI 210553Z 00000KT 10SM SCT095 27/24 A2997 RMK AO2 SLP148 60001 T02720244 10289 20267 58007

Closest aviation forecast (TAF) to Willis Gliderport

Closest forecast is Palm Beach International Airport, 10.3 nm (19.1 km) NE. Retrieved 2019/10/21 06:40 UTC (0 seconds ago):

TAF KPBI 210536Z 2106/2206 VRB03KT P6SM FEW050 SCT250 FM211400 15008KT P6SM SCT035 BKN050 FM220200 VRB03KT P6SM FEW030